Lakeland, Texas
Current Conditions -  °F | °C
As of 9:19 PM on Thursday 18 Dec 2014 (Local Time) from KCXO Reporting Station
Broken Clouds Broken Clouds  
Wind Chill: 59°   Ceiling: 1100
Heat Index: 59°   Visibility: 10mi
Dew Point: 55°   Wind: 6mph
Humidity: 87%   Direction: 70°ENE
Pressure: 30.09"   Gusts: NA
Location:  30.3059°N, 95.4359°W
Report Text: KCXO 190319Z 07005KT 10SM BKN011 BKN019 15/13 A3009 RMK AO2 T01500128
Loading
Personal Weather Stations






























Interactive Weather Map New forecast layout! Learn more

10-Day Weather Forecast

Advertisements
Track Severe Weather on mobile